createdAt,value
2017-08-10T00:00:18.121Z,51.71
2017-08-10T00:02:50.276Z,51.76
2017-08-10T00:05:23.693Z,51.86
2017-08-10T00:07:57.932Z,51.92
2017-08-10T00:10:29.587Z,51.98
2017-08-10T00:13:03.534Z,52.01
2017-08-10T00:15:36.448Z,51.96
2017-08-10T00:18:08.544Z,52.07
2017-08-10T00:20:40.469Z,52.11
2017-08-10T00:23:12.655Z,52.16
2017-08-10T00:25:44.549Z,52.21
2017-08-10T00:28:16.500Z,52.18
2017-08-10T00:30:48.649Z,52.26
2017-08-10T00:33:20.458Z,52.30
2017-08-10T00:35:53.478Z,52.33
2017-08-10T00:38:26.594Z,52.38
2017-08-10T00:41:00.376Z,52.45
2017-08-10T00:43:32.310Z,52.47
2017-08-10T00:46:04.592Z,52.51
2017-08-10T00:48:36.353Z,52.54
2017-08-10T00:51:08.536Z,52.53
2017-08-10T00:53:40.358Z,52.64
2017-08-10T00:56:12.522Z,52.75
2017-08-10T00:58:45.207Z,52.67
2017-08-10T01:01:19.961Z,52.71
2017-08-10T01:03:51.718Z,52.76
2017-08-10T01:06:24.101Z,52.88
2017-08-10T01:08:58.699Z,52.96
2017-08-10T01:11:31.142Z,52.92
2017-08-10T01:14:08.256Z,53.01
2017-08-10T01:16:40.869Z,53.08
2017-08-10T01:19:12.706Z,53.10
2017-08-10T01:21:45.738Z,53.12
2017-08-10T01:24:18.785Z,53.14
2017-08-10T01:26:50.672Z,53.19
2017-08-10T01:29:23.553Z,53.14
2017-08-10T01:32:00.214Z,53.19
2017-08-10T01:34:32.801Z,53.19
2017-08-10T01:37:05.151Z,53.27
2017-08-10T01:39:36.857Z,53.26
2017-08-10T01:42:08.613Z,53.31
2017-08-10T01:44:40.302Z,53.29
2017-08-10T01:47:12.125Z,53.35
2017-08-10T01:49:44.767Z,53.34
2017-08-10T01:52:16.549Z,53.34
2017-08-10T01:54:48.788Z,53.37
2017-08-10T01:57:20.903Z,53.40
2017-08-10T01:59:52.843Z,53.41
2017-08-10T02:02:24.958Z,53.44
2017-08-10T02:04:59.016Z,53.48
2017-08-10T02:07:32.701Z,53.51
2017-08-10T02:10:04.388Z,53.38
2017-08-10T02:12:35.744Z,53.37
2017-08-10T02:15:07.974Z,53.35
2017-08-10T02:17:39.744Z,53.35
2017-08-10T02:20:11.590Z,53.30
2017-08-10T02:22:44.971Z,53.31
2017-08-10T02:25:16.806Z,53.34
2017-08-10T02:27:48.134Z,53.29
2017-08-10T02:30:21.058Z,53.34
2017-08-10T02:32:53.037Z,53.32
2017-08-10T02:35:28.398Z,53.32
2017-08-10T02:38:04.464Z,53.36
2017-08-10T02:40:41.105Z,53.39
2017-08-10T02:43:26.720Z,53.36
2017-08-10T02:46:01.509Z,53.45
2017-08-10T02:48:33.705Z,53.48
2017-08-10T02:51:05.899Z,53.49
2017-08-10T02:53:40.451Z,53.53
2017-08-10T02:56:12.608Z,53.58
2017-08-10T02:58:44.631Z,53.62
2017-08-10T03:01:16.810Z,53.65
2017-08-10T03:03:48.545Z,53.57
2017-08-10T03:06:21.510Z,53.60
2017-08-10T03:08:54.080Z,53.66
2017-08-10T03:11:25.754Z,53.63
2017-08-10T03:13:59.749Z,53.60
2017-08-10T03:16:33.747Z,53.59
2017-08-10T03:19:07.042Z,53.63
2017-08-10T03:21:38.838Z,53.61
2017-08-10T03:24:11.421Z,53.59
2017-08-10T03:26:44.098Z,53.58
2017-08-10T03:29:15.538Z,53.57
2017-08-10T03:31:48.430Z,53.58
2017-08-10T03:34:22.359Z,53.56
2017-08-10T03:36:58.371Z,53.56
2017-08-10T03:39:31.155Z,53.57
2017-08-10T03:42:04.239Z,53.51
2017-08-10T03:44:35.754Z,53.53
2017-08-10T03:47:07.632Z,53.52
2017-08-10T03:49:39.498Z,53.59
2017-08-10T03:52:13.755Z,53.54
2017-08-10T03:54:45.948Z,53.59
2017-08-10T03:57:21.196Z,53.54
2017-08-10T03:59:58.522Z,53.56
2017-08-10T04:02:31.486Z,53.62
2017-08-10T04:05:03.937Z,53.64
2017-08-10T04:07:35.719Z,53.61
2017-08-10T04:10:07.898Z,53.64
2017-08-10T04:12:40.576Z,53.63
2017-08-10T04:15:14.566Z,53.64
2017-08-10T04:17:46.915Z,53.68
2017-08-10T04:20:18.989Z,53.69
2017-08-10T04:22:50.728Z,53.67
2017-08-10T04:25:22.651Z,53.67
2017-08-10T04:28:00.183Z,53.70
2017-08-10T04:30:32.298Z,53.72
2017-08-10T04:33:06.183Z,53.72
2017-08-10T04:35:38.419Z,53.75
2017-08-10T04:38:11.052Z,53.75
2017-08-10T04:40:43.426Z,53.73
2017-08-10T04:43:16.267Z,53.76
2017-08-10T04:45:53.648Z,53.77
2017-08-10T04:48:29.206Z,53.81
2017-08-10T04:51:06.659Z,53.82
2017-08-10T04:53:43.002Z,53.80
2017-08-10T04:56:16.931Z,53.84
2017-08-10T04:58:49.976Z,53.91
2017-08-10T05:01:21.907Z,53.90
2017-08-10T05:04:06.677Z,53.86
2017-08-10T05:06:45.027Z,53.97
2017-08-10T05:09:22.869Z,53.96
2017-08-10T05:12:07.333Z,53.98
2017-08-10T05:14:39.057Z,53.96
2017-08-10T05:17:26.995Z,53.97
2017-08-10T05:20:08.117Z,54.00
2017-08-10T05:22:43.586Z,53.98
2017-08-10T05:25:25.552Z,53.99
2017-08-10T05:28:08.528Z,53.99
2017-08-10T05:30:42.990Z,54.02
2017-08-10T05:33:16.340Z,54.00
2017-08-10T05:35:49.374Z,54.05
2017-08-10T05:38:21.664Z,54.18
2017-08-10T05:40:53.981Z,54.35
2017-08-10T05:43:26.663Z,54.55
2017-08-10T05:46:01.061Z,54.76
2017-08-10T05:48:33.209Z,54.91
2017-08-10T05:51:05.594Z,54.98
2017-08-10T05:53:38.166Z,55.02
2017-08-10T05:56:11.077Z,55.01
2017-08-10T05:58:43.346Z,54.89
2017-08-10T06:01:15.164Z,54.79
2017-08-10T06:03:47.261Z,55.01
2017-08-10T06:06:20.812Z,55.06
2017-08-10T06:08:55.686Z,55.17
2017-08-10T06:11:29.369Z,55.25
2017-08-10T06:14:07.840Z,55.24
2017-08-10T06:16:39.666Z,55.08
2017-08-10T06:19:13.292Z,55.05
2017-08-10T06:21:44.595Z,54.85
2017-08-10T06:24:18.692Z,55.02
2017-08-10T06:26:51.467Z,54.87
2017-08-10T06:29:24.892Z,54.86
2017-08-10T06:31:59.732Z,54.79
2017-08-10T06:34:31.920Z,54.77
2017-08-10T06:37:06.252Z,54.67
2017-08-10T06:39:38.259Z,54.92
2017-08-10T06:42:11.016Z,55.23
2017-08-10T06:44:46.341Z,55.67
2017-08-10T06:47:19.402Z,55.85
2017-08-10T06:49:51.351Z,56.21
2017-08-10T06:52:24.101Z,56.32
2017-08-10T06:55:00.330Z,56.13
2017-08-10T06:57:34.132Z,56.12
2017-08-10T07:00:10.939Z,55.89
2017-08-10T07:02:51.333Z,55.74
2017-08-10T07:05:23.403Z,55.63
2017-08-10T07:08:03.445Z,55.47
2017-08-10T07:10:42.779Z,55.18
2017-08-10T07:13:23.615Z,55.00
2017-08-10T07:16:11.001Z,54.97
2017-08-10T07:18:48.481Z,54.92
2017-08-10T07:24:08.310Z,54.94
2017-08-10T07:26:44.211Z,55.00
2017-08-10T07:29:22.299Z,55.31
2017-08-10T07:31:59.821Z,55.51
2017-08-10T07:34:33.002Z,55.42
2017-08-10T07:37:10.633Z,55.30
2017-08-10T07:39:48.000Z,55.24
2017-08-10T07:42:23.032Z,55.12
2017-08-10T07:45:04.164Z,55.06
2017-08-10T07:47:38.284Z,55.04
2017-08-10T07:50:17.487Z,55.07
2017-08-10T07:52:53.885Z,55.08
2017-08-10T07:55:30.673Z,55.11
2017-08-10T08:01:09.907Z,55.14
2017-08-10T08:07:19.094Z,55.34
2017-08-10T08:10:29.987Z,55.32
2017-08-10T08:16:01.692Z,55.31
2017-08-10T08:18:39.194Z,55.27
2017-08-10T08:21:16.011Z,55.31
2017-08-10T08:23:49.381Z,55.49
2017-08-10T08:26:23.405Z,55.41
2017-08-10T08:29:02.234Z,55.31
2017-08-10T08:31:35.911Z,55.21
2017-08-10T08:34:30.428Z,55.12
2017-08-10T08:37:17.683Z,55.20
2017-08-10T08:42:36.472Z,55.48
2017-08-10T08:45:10.679Z,55.55
2017-08-10T08:47:49.195Z,55.51
2017-08-10T08:50:20.913Z,55.51
2017-08-10T08:52:54.007Z,55.53
2017-08-10T08:55:31.428Z,55.78
2017-08-10T08:58:08.178Z,55.96
2017-08-10T09:00:51.296Z,55.51
2017-08-10T09:03:38.267Z,55.43
2017-08-10T09:06:16.555Z,55.66
2017-08-10T09:08:48.133Z,55.47
2017-08-10T09:11:27.968Z,55.23
2017-08-10T09:14:00.688Z,55.17
2017-08-10T09:16:33.807Z,55.03
2017-08-10T09:19:06.252Z,55.12
2017-08-10T09:21:38.165Z,54.96
2017-08-10T09:24:11.157Z,54.81
2017-08-10T09:26:43.477Z,54.71
2017-08-10T09:29:15.012Z,54.65
2017-08-10T09:31:48.386Z,54.55
2017-08-10T09:34:31.940Z,54.48
2017-08-10T09:37:04.291Z,54.47
2017-08-10T09:39:38.561Z,54.63
2017-08-10T09:42:14.718Z,54.66
2017-08-10T09:44:46.206Z,54.84
2017-08-10T09:47:18.305Z,54.84
2017-08-10T09:49:51.406Z,55.16
2017-08-10T09:52:23.410Z,55.27
2017-08-10T09:54:58.322Z,55.41
2017-08-10T09:57:30.978Z,55.34
2017-08-10T10:00:05.567Z,55.37
2017-08-10T10:02:39.717Z,55.20
2017-08-10T10:05:13.688Z,55.29
2017-08-10T10:07:45.411Z,55.30
2017-08-10T10:10:17.393Z,55.19
2017-08-10T10:12:49.423Z,55.09
2017-08-10T10:15:24.381Z,54.98
2017-08-10T10:18:01.762Z,54.76
2017-08-10T10:20:35.125Z,54.58
2017-08-10T10:23:12.023Z,54.47
2017-08-10T10:25:44.963Z,54.42
2017-08-10T10:28:17.974Z,54.39
2017-08-10T10:30:49.589Z,54.33
2017-08-10T10:33:21.825Z,54.25
2017-08-10T10:38:33.132Z,54.12
2017-08-10T10:41:12.328Z,54.08
2017-08-10T10:43:47.873Z,54.06
2017-08-10T10:46:30.038Z,54.05
2017-08-10T10:49:08.438Z,54.01
2017-08-10T10:51:41.270Z,54.04
2017-08-10T10:54:17.855Z,54.02
2017-08-10T10:56:49.941Z,53.98
2017-08-10T10:59:22.245Z,53.95
2017-08-10T11:01:57.944Z,53.91
2017-08-10T11:04:30.645Z,53.90
2017-08-10T11:07:03.138Z,53.87
2017-08-10T11:09:34.646Z,53.73
2017-08-10T11:12:06.724Z,53.76
2017-08-10T11:14:39.020Z,53.77
2017-08-10T11:17:12.202Z,53.83
2017-08-10T11:19:45.912Z,53.89
2017-08-10T11:22:18.207Z,53.93
2017-08-10T11:24:59.204Z,53.95
2017-08-10T11:27:33.786Z,53.96
2017-08-10T11:30:08.404Z,53.95
2017-08-10T11:32:41.909Z,53.94
2017-08-10T11:35:13.854Z,53.94
2017-08-10T11:37:46.804Z,53.94
2017-08-10T11:40:20.786Z,53.97
2017-08-10T11:42:52.364Z,53.97
2017-08-10T11:45:23.966Z,53.92
2017-08-10T11:47:59.060Z,53.89
2017-08-10T11:50:31.734Z,53.83
2017-08-10T11:53:03.856Z,53.72
2017-08-10T11:55:37.887Z,53.82
2017-08-10T11:58:10.039Z,53.80
2017-08-10T12:00:42.471Z,53.59
2017-08-10T12:03:14.631Z,53.57
2017-08-10T12:05:47.826Z,53.64
2017-08-10T12:08:20.562Z,53.58
2017-08-10T12:10:53.027Z,53.64
2017-08-10T12:13:25.746Z,53.60
2017-08-10T12:15:59.769Z,53.53
2017-08-10T12:18:33.111Z,53.53
2017-08-10T12:21:05.852Z,53.58
2017-08-10T12:23:38.739Z,53.59
2017-08-10T12:26:12.046Z,53.68
2017-08-10T12:28:44.604Z,53.69
2017-08-10T12:31:17.693Z,53.72
2017-08-10T12:33:49.531Z,53.73
2017-08-10T12:36:24.457Z,53.69
2017-08-10T12:39:03.240Z,53.65
2017-08-10T12:41:36.360Z,53.70
2017-08-10T12:44:08.749Z,53.77
2017-08-10T12:46:40.382Z,53.80
2017-08-10T12:49:12.959Z,53.82
2017-08-10T12:51:45.579Z,53.82
2017-08-10T12:54:20.106Z,53.91
2017-08-10T12:56:52.246Z,53.90
2017-08-10T12:59:25.137Z,53.93
2017-08-10T13:02:00.448Z,53.92
2017-08-10T13:04:32.978Z,53.90
2017-08-10T13:07:04.601Z,53.92
2017-08-10T13:09:36.458Z,53.88
2017-08-10T13:12:08.750Z,53.87
2017-08-10T13:14:40.937Z,53.93
2017-08-10T13:17:13.126Z,54.00
2017-08-10T13:19:45.282Z,54.03
2017-08-10T13:22:20.706Z,54.01
2017-08-10T13:24:54.026Z,54.06
2017-08-10T13:27:25.705Z,54.08
2017-08-10T13:30:02.341Z,54.05
2017-08-10T13:32:48.595Z,54.00
2017-08-10T13:35:30.728Z,54.00
2017-08-10T13:38:03.786Z,54.05
2017-08-10T13:40:36.960Z,54.14
2017-08-10T13:43:09.048Z,54.04
2017-08-10T13:45:41.485Z,54.08
2017-08-10T13:48:13.199Z,54.06
2017-08-10T13:50:44.888Z,54.00
2017-08-10T13:53:16.408Z,54.01
2017-08-10T13:55:50.261Z,54.05
2017-08-10T13:58:23.577Z,54.16
2017-08-10T14:00:59.723Z,54.29
2017-08-10T14:03:32.590Z,54.35
2017-08-10T14:06:04.785Z,54.36
2017-08-10T14:08:39.887Z,54.58
2017-08-10T14:11:11.917Z,54.65
2017-08-10T14:13:45.271Z,54.68
2017-08-10T14:16:18.538Z,54.72
2017-08-10T14:18:51.089Z,54.84
2017-08-10T14:21:27.046Z,54.93
2017-08-10T14:24:07.290Z,55.02
2017-08-10T14:26:42.286Z,55.08
2017-08-10T14:29:38.381Z,54.83
2017-08-10T14:32:11.189Z,54.89
2017-08-10T14:34:47.228Z,54.99
2017-08-10T14:37:28.329Z,54.91
2017-08-10T14:40:04.067Z,54.86
2017-08-10T14:45:28.915Z,55.05
2017-08-10T14:48:01.617Z,54.95
2017-08-10T14:50:40.184Z,55.02
2017-08-10T14:53:13.442Z,55.17
2017-08-10T14:55:47.180Z,55.27
2017-08-10T14:58:20.312Z,55.26
2017-08-10T15:00:53.116Z,55.06
2017-08-10T15:03:27.422Z,55.03
2017-08-10T15:06:02.009Z,55.14
2017-08-10T15:08:38.445Z,55.27
2017-08-10T15:11:58.013Z,55.23
2017-08-10T15:14:31.395Z,55.43
2017-08-10T15:17:04.819Z,55.42
2017-08-10T15:19:36.936Z,55.47
2017-08-10T15:22:10.084Z,55.61
2017-08-10T15:24:41.961Z,55.73
2017-08-10T15:27:14.828Z,55.86
2017-08-10T15:29:46.779Z,55.65
2017-08-10T15:32:19.925Z,55.59
2017-08-10T15:34:53.006Z,55.66
2017-08-10T15:37:26.104Z,55.91
2017-08-10T15:40:01.572Z,56.03
2017-08-10T15:42:32.909Z,56.24
2017-08-10T15:45:09.783Z,56.25
2017-08-10T15:47:49.586Z,56.29
2017-08-10T15:50:22.245Z,56.32
2017-08-10T15:53:00.300Z,56.25
2017-08-10T15:55:37.902Z,56.13
2017-08-10T15:58:10.901Z,56.01
2017-08-10T16:00:44.397Z,55.95
2017-08-10T16:03:19.705Z,55.99
2017-08-10T16:05:54.016Z,56.14
2017-08-10T16:08:37.725Z,56.25
2017-08-10T16:11:11.293Z,56.37
2017-08-10T16:13:50.566Z,56.43
2017-08-10T16:16:25.441Z,56.30
2017-08-10T16:19:03.773Z,56.19
2017-08-10T16:21:37.900Z,56.26
2017-08-10T16:24:09.903Z,56.42
2017-08-10T16:26:42.693Z,56.64
2017-08-10T16:29:14.617Z,56.81
2017-08-10T16:31:47.512Z,56.89
2017-08-10T16:34:19.588Z,56.91
2017-08-10T16:36:51.680Z,57.11
2017-08-10T16:39:28.998Z,57.13
2017-08-10T16:42:07.596Z,57.10
2017-08-10T16:44:52.254Z,56.89
2017-08-10T16:47:34.791Z,56.93
2017-08-10T16:50:18.304Z,56.88
2017-08-10T16:52:59.519Z,56.80
2017-08-10T16:55:34.654Z,56.75
2017-08-10T16:58:08.321Z,56.62
2017-08-10T17:00:42.629Z,56.63
2017-08-10T17:03:17.880Z,56.62
2017-08-10T17:05:50.485Z,56.64
2017-08-10T17:08:22.523Z,56.66
2017-08-10T17:10:59.092Z,56.57
2017-08-10T17:13:31.431Z,56.63
2017-08-10T17:16:07.498Z,56.61
2017-08-10T17:18:40.551Z,56.62
2017-08-10T17:21:13.024Z,56.62
2017-08-10T17:23:46.508Z,56.64
2017-08-10T17:26:20.142Z,56.63
2017-08-10T17:28:54.196Z,56.56
2017-08-10T17:31:27.067Z,56.54
2017-08-10T17:34:02.728Z,56.50
2017-08-10T17:36:34.973Z,56.43
2017-08-10T17:39:14.838Z,56.40
2017-08-10T17:41:46.861Z,56.35
2017-08-10T17:44:23.020Z,56.31
2017-08-10T17:46:58.005Z,56.30
2017-08-10T17:49:31.693Z,56.23
2017-08-10T17:52:06.338Z,56.21
2017-08-10T17:54:42.888Z,56.21
2017-08-10T17:57:14.664Z,56.21
2017-08-10T17:59:48.123Z,56.14
2017-08-10T18:02:24.642Z,56.12
2017-08-10T18:04:58.168Z,56.07
2017-08-10T18:07:32.253Z,56.05
2017-08-10T18:10:06.872Z,56.02
2017-08-10T18:12:44.535Z,56.05
2017-08-10T18:15:27.355Z,56.14
2017-08-10T18:18:03.798Z,56.31
2017-08-10T18:21:06.996Z,56.47
2017-08-10T18:23:42.251Z,56.64
2017-08-10T18:26:18.693Z,56.75
2017-08-10T18:28:51.814Z,56.85
2017-08-10T18:31:28.885Z,56.91
2017-08-10T18:34:04.473Z,56.85
2017-08-10T18:36:37.588Z,56.82
2017-08-10T18:39:10.368Z,56.78
2017-08-10T18:41:45.167Z,56.78
2017-08-10T18:44:17.939Z,56.67
2017-08-10T18:46:51.850Z,56.63
2017-08-10T18:49:26.610Z,56.56
2017-08-10T18:52:03.971Z,56.49
2017-08-10T18:54:39.887Z,56.42
2017-08-10T18:57:12.263Z,56.38
2017-08-10T18:59:44.036Z,56.31
2017-08-10T19:02:16.997Z,56.23
2017-08-10T19:04:49.268Z,56.20
2017-08-10T19:07:22.459Z,56.10
2017-08-10T19:09:56.926Z,56.02
2017-08-10T19:12:31.506Z,55.99
2017-08-10T19:15:07.258Z,56.01
2017-08-10T19:17:38.899Z,56.10
2017-08-10T19:20:14.838Z,56.38
2017-08-10T19:22:46.646Z,56.56
2017-08-10T19:25:20.505Z,56.96
2017-08-10T19:27:52.041Z,57.00
2017-08-10T19:30:23.825Z,57.00
2017-08-10T19:33:01.463Z,56.88
2017-08-10T19:35:34.485Z,56.90
2017-08-10T19:38:08.535Z,56.96
2017-08-10T19:40:41.447Z,57.01
2017-08-10T19:43:13.083Z,57.05
2017-08-10T19:45:45.599Z,57.11
2017-08-10T19:48:20.530Z,57.18
2017-08-10T19:50:53.575Z,57.22
2017-08-10T19:53:26.228Z,57.32
2017-08-10T19:56:01.603Z,57.33
2017-08-10T19:58:34.003Z,57.41
2017-08-10T20:01:10.668Z,57.44
2017-08-10T20:03:44.917Z,57.52
2017-08-10T20:06:21.791Z,57.62
2017-08-10T20:09:07.898Z,57.59
2017-08-10T20:11:43.122Z,57.62
2017-08-10T20:14:15.755Z,57.76
2017-08-10T20:16:49.464Z,57.77
2017-08-10T20:19:21.550Z,57.85
2017-08-10T20:21:59.436Z,57.83
2017-08-10T20:24:43.938Z,57.85
2017-08-10T20:27:33.414Z,57.91
2017-08-10T20:30:08.605Z,58.00
2017-08-10T20:32:41.519Z,58.02
2017-08-10T20:35:16.287Z,58.09
2017-08-10T20:37:48.625Z,58.07
2017-08-10T20:40:21.123Z,58.14
2017-08-10T20:44:15.580Z,58.09
2017-08-10T20:47:13.737Z,58.04
2017-08-10T20:55:10.165Z,58.13
2017-08-10T20:57:42.691Z,58.17
2017-08-10T21:00:14.831Z,58.14
2017-08-10T21:02:47.536Z,58.17
2017-08-10T21:05:20.047Z,58.13
2017-08-10T21:07:51.607Z,58.21
2017-08-10T21:10:23.945Z,58.16
2017-08-10T21:12:57.741Z,58.17
2017-08-10T21:15:29.541Z,58.17
2017-08-10T21:18:01.384Z,58.11
2017-08-10T21:20:33.414Z,58.12
2017-08-10T21:23:05.324Z,58.19
2017-08-10T21:25:41.490Z,58.19
2017-08-10T21:28:16.367Z,58.17
2017-08-10T21:30:48.132Z,58.25
2017-08-10T21:33:19.851Z,58.27
2017-08-10T21:35:52.763Z,58.28
2017-08-10T21:38:25.143Z,58.22
2017-08-10T21:40:56.573Z,58.29
2017-08-10T21:43:30.358Z,58.31
2017-08-10T21:46:02.026Z,58.24
2017-08-10T21:48:34.300Z,58.23
2017-08-10T21:51:06.529Z,58.15
2017-08-10T21:53:38.755Z,58.15
2017-08-10T21:56:11.360Z,58.04
2017-08-10T21:58:43.298Z,58.05
2017-08-10T22:01:15.020Z,58.04
2017-08-10T22:03:46.945Z,58.13
2017-08-10T22:06:20.283Z,58.11
2017-08-10T22:08:52.507Z,58.22
2017-08-10T22:11:26.111Z,58.19
2017-08-10T22:13:59.215Z,58.20
2017-08-10T22:16:32.261Z,58.26
2017-08-10T22:19:04.739Z,58.21
2017-08-10T22:21:36.574Z,58.14
2017-08-10T22:24:08.409Z,58.08
2017-08-10T22:26:41.025Z,58.06
2017-08-10T22:29:12.635Z,58.05
2017-08-10T22:31:44.312Z,58.01
2017-08-10T22:34:16.733Z,57.98
2017-08-10T22:36:50.694Z,57.98
2017-08-10T22:39:24.184Z,57.99
2017-08-10T22:41:59.640Z,57.93
2017-08-10T22:44:33.947Z,57.86
2017-08-10T22:47:09.034Z,57.88
2017-08-10T22:49:40.431Z,57.86
2017-08-10T22:52:12.056Z,57.85
2017-08-10T22:54:43.977Z,57.79
2017-08-10T22:57:17.615Z,57.78
2017-08-10T22:59:50.859Z,57.81
2017-08-10T23:02:23.406Z,57.77
2017-08-10T23:04:57.156Z,57.77
2017-08-10T23:07:28.765Z,57.76
2017-08-10T23:10:01.159Z,57.72
2017-08-10T23:12:33.527Z,57.73
2017-08-10T23:15:05.622Z,57.70
2017-08-10T23:17:37.529Z,57.67
2017-08-10T23:20:09.201Z,57.65
2017-08-10T23:22:41.601Z,57.65
2017-08-10T23:25:13.871Z,57.61
2017-08-10T23:27:45.260Z,57.58
2017-08-10T23:30:16.740Z,57.55
2017-08-10T23:32:49.718Z,57.57
2017-08-10T23:35:21.296Z,57.55
2017-08-10T23:37:53.426Z,57.50
2017-08-10T23:40:29.363Z,57.50
2017-08-10T23:43:01.551Z,57.48
2017-08-10T23:45:33.894Z,57.42
2017-08-10T23:48:05.474Z,57.40
2017-08-10T23:50:37.089Z,57.36
2017-08-10T23:53:09.631Z,57.35
2017-08-10T23:55:42.375Z,57.34
2017-08-10T23:58:15.019Z,57.30
